Time;durP1;ratioP1;P1;durP2;ratioP2;P2;SDS_P1;SDS_P2;PMS_P1;PMS_P2;Temp;Humidity;BMP_temperature;BMP_pressure;BME280_temperature;BME280_humidity;BME280_pressure;Samples;Min_cycle;Max_cycle;Signal;HPM_P1;HPM_P2
2021/05/30 00:00:06;;;;;;;7.03;6.20;;;13.20;82.10;;;;;;4944719;28;20957;-87
2021/05/30 00:02:38;;;;;;;6.70;5.93;;;13.30;81.80;;;;;;4949176;29;20461;-87
2021/05/30 00:05:12;;;;;;;7.03;6.43;;;13.30;81.40;;;;;;4968323;28;20459;-87
2021/05/30 00:07:42;;;;;;;5.93;5.43;;;13.30;81.40;;;;;;4953199;29;20430;-87
2021/05/30 00:10:19;;;;;;;6.70;6.10;;;13.20;81.10;;;;;;4961136;28;20487;-87
2021/05/30 00:13:47;;;;;;;6.83;6.13;;;13.20;81.00;;;;;;4945492;28;20437;-87
2021/05/30 00:16:36;;;;;;;6.93;5.80;;;13.10;81.50;;;;;;4885852;29;20444;-87
2021/05/30 00:39:02;;;;;;;;;;;;;;;;;;;;;
2021/05/30 00:41:51;;;;;;;6.20;5.53;;;12.60;86.10;;;;;;4854922;29;20451;-87
2021/05/30 00:44:58;;;;;;;9.27;6.70;;;12.40;86.70;;;;;;4954518;28;20487;-87
2021/05/30 00:47:43;;;;;;;6.87;6.17;;;12.40;87.50;;;;;;4950433;28;20462;-87
2021/05/30 00:50:33;;;;;;;;;;;;;;;;;;;;;
2021/05/30 00:53:31;;;;;;;6.40;5.80;;;12.40;88.20;;;;;;4954141;28;20452;-87
2021/05/30 00:58:46;;;;;;;6.53;5.40;;;12.40;89.30;;;;;;4945795;28;20504;-87
2021/05/30 01:07:57;;;;;;;6.20;5.60;;;12.30;89.80;;;;;;4795781;29;20970;-87
2021/05/30 01:20:06;;;;;;;;;;;;;;;;;;;;;
2021/05/30 01:28:48;;;;;;;6.17;5.57;;;12.00;90.90;;;;;;4937775;28;20855;-88
2021/05/30 01:31:43;;;;;;;6.30;5.80;;;11.90;91.00;;;;;;4935167;29;20497;-87
2021/05/30 01:37:00;;;;;;;7.33;6.13;;;11.80;91.90;;;;;;4945819;28;20433;-87
2021/05/30 01:42:14;;;;;;;5.90;5.30;;;11.80;92.40;;;;;;4940684;28;20526;-88
2021/05/30 01:45:04;;;;;;;6.77;6.13;;;11.70;92.70;;;;;;4968503;28;20462;-87
2021/05/30 01:47:48;;;;;;;7.13;5.87;;;11.60;92.70;;;;;;4956829;28;20457;-88
2021/05/30 01:50:24;;;;;;;5.97;5.37;;;11.60;93.10;;;;;;4966600;28;20502;-88
2021/05/30 01:58:53;;;;;;;5.80;5.30;;;11.60;93.50;;;;;;4955493;28;20445;-87
2021/05/30 02:04:23;;;;;;;7.43;6.80;;;11.60;93.70;;;;;;4946831;28;20454;-87
2021/05/30 02:07:34;;;;;;;7.40;6.20;;;11.60;93.80;;;;;;4947586;28;20441;-87
2021/05/30 02:13:11;;;;;;;8.23;6.53;;;11.60;93.50;;;;;;4946576;28;20985;-87
2021/05/30 02:15:42;;;;;;;5.53;5.00;;;11.60;93.70;;;;;;4958532;29;20452;-87
2021/05/30 02:18:08;;;;;;;6.63;6.03;;;11.50;93.80;;;;;;4964156;28;20458;-88
2021/05/30 02:20:52;;;;;;;8.77;6.93;;;11.50;94.20;;;;;;4953077;28;20440;-87
2021/05/30 02:23:48;;;;;;;6.77;6.10;;;11.50;94.40;;;;;;4960094;28;20445;-89
2021/05/30 02:26:35;;;;;;;7.07;6.40;;;11.40;94.40;;;;;;4945949;28;20482;-88
2021/05/30 02:32:28;;;;;;;6.63;5.93;;;11.30;94.70;;;;;;4943013;28;20436;-88
2021/05/30 02:35:20;;;;;;;7.10;6.00;;;11.30;94.40;;;;;;4948679;28;20473;-88
2021/05/30 02:37:54;;;;;;;7.40;6.70;;;11.40;94.50;;;;;;4948860;28;20449;-88
2021/05/30 02:40:40;;;;;;;7.53;6.00;;;11.50;94.30;;;;;;4947529;28;20433;-87
2021/05/30 02:43:28;;;;;;;;;;;;;;;;;;;;;
2021/05/30 02:46:23;;;;;;;7.77;5.90;;;11.50;94.20;;;;;;4963284;29;20446;-88
2021/05/30 02:49:18;;;;;;;7.30;6.70;;;11.50;94.20;;;;;;4945889;28;20472;-87
2021/05/30 02:52:03;;;;;;;;;;;;;;;;;;;;;
2021/05/30 02:55:12;;;;;;;6.60;5.50;;;11.50;94.50;;;;;;4945610;29;20462;-88
2021/05/30 02:58:00;;;;;;;;;;;;;;;;;;;;;
2021/05/30 03:00:46;;;;;;;;;;;;;;;;;;;;;
2021/05/30 03:13:01;;;;;;;7.50;5.83;;;11.50;94.50;;;;;;4942448;28;20469;-87
2021/05/30 03:19:39;;;;;;;;;;;;;;;;;;;;;
2021/05/30 03:23:02;;;;;;;6.27;5.67;;;11.40;94.90;;;;;;4943950;29;20452;-87
2021/05/30 03:33:39;;;;;;;6.63;5.97;;;11.10;95.60;;;;;;4940028;29;20528;-87
2021/05/30 03:37:06;;;;;;;;;;;;;;;;;;;;;
2021/05/30 03:49:58;;;;;;;7.10;5.70;;;11.00;97.10;;;;;;4904941;29;20506;-88
2021/05/30 03:53:30;;;;;;;6.77;6.17;;;10.90;97.30;;;;;;4831346;29;20518;-87
2021/05/30 03:56:33;;;;;;;6.70;6.20;;;10.90;97.00;;;;;;4846763;29;20477;-88
2021/05/30 03:58:59;;;;;;;8.00;5.90;;;10.90;96.70;;;;;;4945564;29;20519;-88
2021/05/30 04:01:27;;;;;;;5.23;4.73;;;10.80;96.60;;;;;;4956366;29;20449;-87
2021/05/30 04:03:54;;;;;;;6.10;5.50;;;10.90;96.80;;;;;;4983139;28;20449;-88
2021/05/30 04:06:22;;;;;;;6.33;5.83;;;10.80;96.90;;;;;;4983929;28;20451;-88
2021/05/30 04:08:49;;;;;;;7.03;6.10;;;10.90;96.80;;;;;;4983422;28;20436;-87
2021/05/30 04:11:16;;;;;;;7.67;5.57;;;11.00;96.80;;;;;;4980746;28;21578;-87
2021/05/30 04:13:43;;;;;;;6.70;6.07;;;11.00;96.70;;;;;;4972215;28;20472;-88
2021/05/30 04:16:10;;;;;;;7.70;5.40;;;11.00;96.90;;;;;;4972676;29;20450;-87
2021/05/30 04:18:38;;;;;;;6.00;5.60;;;11.00;97.10;;;;;;4973139;28;20449;-87
2021/05/30 04:21:06;;;;;;;6.23;5.63;;;11.00;97.10;;;;;;4965305;28;20430;-89
2021/05/30 04:23:32;;;;;;;8.13;6.33;;;11.00;96.80;;;;;;4982851;28;20537;-88
2021/05/30 04:25:59;;;;;;;6.10;5.50;;;11.10;96.70;;;;;;4972986;28;20442;-88
2021/05/30 04:28:26;;;;;;;6.20;5.60;;;11.00;97.00;;;;;;4975992;29;20450;-87
2021/05/30 04:30:53;;;;;;;6.17;5.67;;;11.00;97.40;;;;;;4976756;28;20472;-88
2021/05/30 04:33:19;;;;;;;6.13;5.53;;;11.00;97.70;;;;;;4983243;28;20448;-87
2021/05/30 04:35:47;;;;;;;6.30;5.70;;;11.00;97.80;;;;;;4974077;28;20430;-87
2021/05/30 04:38:14;;;;;;;10.57;6.50;;;11.10;97.90;;;;;;4974430;28;20447;-88
2021/05/30 04:40:41;;;;;;;7.53;6.87;;;11.10;97.90;;;;;;4971819;28;20447;-88
2021/05/30 04:43:07;;;;;;;7.50;6.80;;;11.00;97.80;;;;;;4966294;28;20434;-87
2021/05/30 04:45:34;;;;;;;9.33;6.50;;;11.10;97.70;;;;;;4956992;29;20501;-87
2021/05/30 04:48:01;;;;;;;7.63;6.40;;;11.20;97.60;;;;;;4953677;29;20446;-88
2021/05/30 04:50:28;;;;;;;6.87;6.17;;;11.20;97.40;;;;;;4953062;28;20912;-88
2021/05/30 04:52:55;;;;;;;6.97;6.27;;;11.30;97.40;;;;;;4954026;29;20456;-87
2021/05/30 04:55:22;;;;;;;7.17;6.47;;;11.30;97.10;;;;;;4949965;28;20531;-88
2021/05/30 04:57:50;;;;;;;5.63;5.03;;;11.40;96.40;;;;;;4951674;28;20457;-88
2021/05/30 05:00:17;;;;;;;12.07;6.47;;;11.50;95.90;;;;;;4951691;28;20453;-88
2021/05/30 05:02:44;;;;;;;7.13;6.27;;;11.60;95.50;;;;;;4946445;29;20544;-88
2021/05/30 05:05:12;;;;;;;7.13;6.53;;;11.70;95.00;;;;;;4948345;29;20510;-87
2021/05/30 05:07:40;;;;;;;6.70;6.00;;;11.70;94.80;;;;;;4948920;29;20796;-88
2021/05/30 05:10:10;;;;;;;6.70;6.20;;;11.80;94.80;;;;;;4945646;28;20478;-88
2021/05/30 05:12:36;;;;;;;9.97;5.53;;;12.30;94.90;;;;;;4947193;28;20462;-90
2021/05/30 05:15:04;;;;;;;6.23;5.27;;;13.20;93.30;;;;;;4947956;28;20491;-88
2021/05/30 05:17:30;;;;;;;5.73;5.13;;;14.10;91.30;;;;;;4947087;29;20445;-86
2021/05/30 05:19:57;;;;;;;5.63;5.13;;;15.10;88.60;;;;;;4947935;29;20453;-86
2021/05/30 05:22:24;;;;;;;6.63;6.03;;;16.00;84.40;;;;;;4948849;28;20462;-86
2021/05/30 05:24:51;;;;;;;4.93;4.43;;;16.60;80.20;;;;;;4946417;29;20531;-86
2021/05/30 05:27:19;;;;;;;5.87;5.37;;;17.30;77.60;;;;;;4946858;29;20457;-86
2021/05/30 05:29:46;;;;;;;5.53;5.10;;;17.90;74.90;;;;;;4949229;29;20834;-86
2021/05/30 05:32:13;;;;;;;5.90;5.40;;;18.40;71.90;;;;;;4947113;29;20966;-87
2021/05/30 05:34:40;;;;;;;5.87;5.37;;;18.90;69.40;;;;;;4946249;29;20469;-87
2021/05/30 05:37:07;;;;;;;5.63;5.13;;;19.30;66.70;;;;;;4946827;28;20460;-87
2021/05/30 05:39:33;;;;;;;5.30;4.90;;;19.60;64.60;;;;;;4959202;29;20551;-87
2021/05/30 05:42:00;;;;;;;6.13;5.07;;;19.90;62.90;;;;;;4949493;29;20473;-87
2021/05/30 05:44:28;;;;;;;6.20;5.70;;;20.00;61.40;;;;;;4945824;29;20470;-87
2021/05/30 05:46:55;;;;;;;5.40;5.00;;;20.30;61.40;;;;;;4946350;29;20816;-87
2021/05/30 05:49:21;;;;;;;5.80;5.30;;;20.00;59.20;;;;;;4949439;29;20436;-87
2021/05/30 05:51:48;;;;;;;5.83;5.20;;;20.30;60.10;;;;;;4948817;28;20876;-87
2021/05/30 05:54:15;;;;;;;5.20;4.70;;;20.80;59.10;;;;;;4947008;29;20473;-87
2021/05/30 05:56:42;;;;;;;5.97;5.40;;;21.10;57.50;;;;;;4951429;29;20446;-87
2021/05/30 05:59:08;;;;;;;4.70;4.40;;;20.60;57.70;;;;;;4961359;28;20430;-86
2021/05/30 06:01:35;;;;;;;5.50;5.00;;;21.00;57.50;;;;;;4947917;28;20437;-87
2021/05/30 06:04:01;;;;;;;5.67;5.17;;;21.30;57.10;;;;;;4952362;28;20461;-87
2021/05/30 06:06:28;;;;;;;4.87;4.47;;;21.60;56.20;;;;;;4946291;29;20461;-87
2021/05/30 06:08:54;;;;;;;5.07;4.67;;;21.70;55.80;;;;;;4946739;29;20442;-87
2021/05/30 06:11:20;;;;;;;5.10;4.70;;;22.10;55.60;;;;;;4946644;29;20490;-87
2021/05/30 06:13:46;;;;;;;5.37;4.97;;;22.40;54.90;;;;;;4952893;29;20544;-87
2021/05/30 06:16:12;;;;;;;6.00;5.40;;;22.80;53.90;;;;;;4962722;28;20807;-88
2021/05/30 06:18:39;;;;;;;4.90;4.50;;;23.00;53.10;;;;;;4948056;28;20451;-87
2021/05/30 06:21:06;;;;;;;5.40;5.00;;;22.70;52.90;;;;;;4946906;28;20445;-91
2021/05/30 06:23:32;;;;;;;5.37;4.97;;;22.80;53.30;;;;;;4945821;29;20512;-87
2021/05/30 06:26:00;;;;;;;4.93;4.53;;;22.90;52.40;;;;;;4944023;29;20535;-87
2021/05/30 06:28:26;;;;;;;6.47;4.80;;;22.70;53.00;;;;;;4946795;29;20452;-87
2021/05/30 06:30:53;;;;;;;5.43;4.97;;;22.80;52.30;;;;;;4946418;29;20491;-87
2021/05/30 06:33:20;;;;;;;4.93;4.63;;;23.40;52.20;;;;;;4948610;28;20524;-88
2021/05/30 06:35:48;;;;;;;5.20;4.80;;;23.90;51.10;;;;;;4960682;29;20438;-87
2021/05/30 06:38:15;;;;;;;5.57;5.17;;;24.50;50.60;;;;;;4961754;28;20450;-87
2021/05/30 06:40:42;;;;;;;5.80;5.20;;;24.50;49.50;;;;;;4952320;29;20441;-88
2021/05/30 06:43:10;;;;;;;5.77;5.27;;;24.00;49.70;;;;;;4947562;29;20513;-88
2021/05/30 06:45:37;;;;;;;4.63;4.30;;;24.30;49.50;;;;;;4944505;28;20547;-89
2021/05/30 06:48:05;;;;;;;4.93;4.63;;;24.30;49.20;;;;;;4963301;29;20467;-88
2021/05/30 06:50:32;;;;;;;5.73;5.20;;;23.60;50.00;;;;;;4962749;28;20587;-88
2021/05/30 06:53:00;;;;;;;5.67;5.27;;;22.80;50.80;;;;;;4961360;28;20495;-88
2021/05/30 06:55:27;;;;;;;5.43;4.93;;;22.10;52.90;;;;;;4967968;28;20521;-88
2021/05/30 06:57:55;;;;;;;5.07;4.67;;;23.00;52.00;;;;;;4956234;29;20480;-88
2021/05/30 07:00:22;;;;;;;5.20;4.60;;;23.80;50.00;;;;;;4950475;29;20453;-87
2021/05/30 07:02:51;;;;;;;5.10;4.70;;;24.50;49.00;;;;;;4948463;29;20446;-86
2021/05/30 07:05:20;;;;;;;4.70;4.30;;;24.30;48.10;;;;;;4947223;28;20473;-87
2021/05/30 07:07:47;;;;;;;5.40;4.90;;;23.80;49.00;;;;;;4945707;28;20457;-87
2021/05/30 07:10:16;;;;;;;4.20;3.90;;;24.20;48.60;;;;;;4944448;29;20505;-87
2021/05/30 07:12:42;;;;;;;4.70;4.30;;;24.60;47.40;;;;;;4945454;29;20457;-87
2021/05/30 07:15:10;;;;;;;5.50;4.60;;;25.20;46.70;;;;;;4947027;28;20997;-87
2021/05/30 07:17:38;;;;;;;4.63;4.10;;;25.90;46.00;;;;;;4945009;28;20460;-87
2021/05/30 07:20:06;;;;;;;4.17;3.77;;;26.50;44.30;;;;;;4945279;28;20461;-87
2021/05/30 07:22:33;;;;;;;4.13;3.83;;;27.20;43.30;;;;;;4958399;28;20434;-86
2021/05/30 07:25:00;;;;;;;4.73;4.17;;;26.60;42.40;;;;;;4966325;28;20456;-89
2021/05/30 07:27:28;;;;;;;3.80;3.50;;;26.90;42.80;;;;;;4963224;28;20498;-86
2021/05/30 07:29:54;;;;;;;5.10;4.03;;;26.70;41.60;;;;;;4958531;28;20458;-87
2021/05/30 07:32:21;;;;;;;5.43;3.43;;;26.50;41.60;;;;;;4965826;28;20475;-86
2021/05/30 07:34:48;;;;;;;4.30;4.00;;;26.90;40.90;;;;;;4948790;29;20568;-88
2021/05/30 07:37:15;;;;;;;4.97;4.47;;;25.70;42.50;;;;;;4951925;28;20441;-88
2021/05/30 07:39:41;;;;;;;4.80;4.40;;;26.00;43.20;;;;;;4946396;29;20475;-88
2021/05/30 07:42:09;;;;;;;4.00;3.70;;;26.80;42.40;;;;;;4951174;28;20442;-88
2021/05/30 07:44:37;;;;;;;4.80;3.63;;;27.40;40.50;;;;;;4947542;28;20464;-89
2021/05/30 07:47:05;;;;;;;3.70;3.40;;;27.40;40.00;;;;;;4947198;28;20455;-88
2021/05/30 07:49:32;;;;;;;4.83;3.30;;;28.00;39.70;;;;;;4944271;28;20892;-88
2021/05/30 07:51:59;;;;;;;4.63;4.23;;;27.10;40.10;;;;;;4945012;29;20480;-88
2021/05/30 07:54:26;;;;;;;3.97;3.30;;;27.60;40.00;;;;;;4945160;28;20594;-88
2021/05/30 07:56:53;;;;;;;3.30;2.90;;;27.80;38.80;;;;;;4944343;28;20454;-88
2021/05/30 07:59:20;;;;;;;6.37;4.10;;;26.80;39.80;;;;;;4957454;28;20453;-87
2021/05/30 08:01:48;;;;;;;4.47;4.07;;;25.20;42.00;;;;;;4961675;28;20499;-88
2021/05/30 08:04:15;;;;;;;6.07;4.37;;;24.80;42.80;;;;;;4964695;28;20476;-88
2021/05/30 08:06:42;;;;;;;4.10;3.40;;;25.40;42.70;;;;;;4943786;28;20494;-87
2021/05/30 08:09:09;;;;;;;4.80;3.60;;;25.80;42.40;;;;;;4962866;28;20520;-87
2021/05/30 08:11:36;;;;;;;3.93;3.63;;;25.10;42.30;;;;;;4963213;29;20486;-87
2021/05/30 08:14:03;;;;;;;4.07;3.67;;;24.80;43.60;;;;;;4948204;28;20904;-88
2021/05/30 08:16:30;;;;;;;4.27;3.97;;;25.20;42.50;;;;;;4945557;28;20452;-87
2021/05/30 08:18:58;;;;;;;4.60;3.47;;;26.50;41.00;;;;;;4944334;28;20450;-88
2021/05/30 08:21:25;;;;;;;4.07;3.60;;;27.60;40.00;;;;;;4944411;29;20959;-88
2021/05/30 08:23:52;;;;;;;3.77;3.47;;;27.00;38.90;;;;;;4945886;28;20482;-88
2021/05/30 08:26:20;;;;;;;3.37;3.13;;;27.90;38.50;;;;;;4946649;29;20508;-89
2021/05/30 08:28:47;;;;;;;3.40;3.20;;;28.60;37.20;;;;;;4946071;28;20955;-88
2021/05/30 08:31:14;;;;;;;4.10;3.80;;;26.90;37.90;;;;;;4944780;28;20474;-88
2021/05/30 08:33:41;;;;;;;4.37;3.97;;;25.90;39.20;;;;;;4944565;28;20476;-88
2021/05/30 08:36:09;;;;;;;3.70;3.40;;;25.70;40.70;;;;;;4944840;29;20466;-89
2021/05/30 08:38:35;;;;;;;3.13;2.93;;;26.40;40.70;;;;;;4956305;29;20438;-88
2021/05/30 08:41:03;;;;;;;3.17;2.93;;;27.30;38.60;;;;;;4959699;29;20451;-89
2021/05/30 08:43:29;;;;;;;4.23;3.93;;;26.80;38.10;;;;;;4952828;28;20442;-88
2021/05/30 08:45:56;;;;;;;4.67;3.87;;;26.70;37.90;;;;;;4948905;29;20480;-88
2021/05/30 08:48:23;;;;;;;3.03;2.80;;;26.70;38.00;;;;;;4958711;28;20445;-88
2021/05/30 08:51:03;;;;;;;3.90;3.53;;;25.80;39.00;;;;;;4957729;29;20473;-88
2021/05/30 08:53:32;;;;;;;5.27;4.83;;;25.30;40.00;;;;;;4947650;28;20569;-89
2021/05/30 08:55:58;;;;;;;3.93;3.53;;;24.90;40.60;;;;;;4946774;29;20430;-88
2021/05/30 08:58:34;;;;;;;3.17;2.93;;;24.70;39.60;;;;;;4950152;29;20503;-88
2021/05/30 09:01:12;;;;;;;3.30;3.10;;;25.60;39.40;;;;;;4947301;29;20456;-88
2021/05/30 09:03:54;;;;;;;3.30;3.03;;;27.00;37.40;;;;;;4949568;29;20461;-89
2021/05/30 09:06:23;;;;;;;3.43;3.13;;;28.60;35.30;;;;;;4969950;28;20426;-88
2021/05/30 09:08:52;;;;;;;3.10;2.90;;;27.30;36.20;;;;;;4970726;28;20516;-88
2021/05/30 09:11:43;;;;;;;4.17;3.77;;;27.80;37.60;;;;;;4976866;28;20466;-88
2021/05/30 09:14:14;;;;;;;2.97;2.70;;;28.60;35.40;;;;;;4965074;28;20524;-88
2021/05/30 09:17:07;;;;;;;3.63;3.17;;;29.40;34.20;;;;;;4954581;28;20460;-88
2021/05/30 09:19:43;;;;;;;3.50;3.20;;;30.90;32.30;;;;;;4946807;28;20449;-88
2021/05/30 09:22:25;;;;;;;3.63;3.10;;;32.00;30.90;;;;;;4949200;28;20445;-88
2021/05/30 09:25:10;;;;;;;3.60;3.30;;;32.10;30.40;;;;;;4947823;29;20886;-88
2021/05/30 09:27:43;;;;;;;3.73;3.43;;;31.80;31.30;;;;;;4946483;29;20458;-88
2021/05/30 09:30:34;;;;;;;3.83;3.53;;;31.90;31.30;;;;;;4949435;28;20485;-92
2021/05/30 09:33:14;;;;;;;3.90;3.60;;;31.80;30.50;;;;;;4954172;29;20457;-88
2021/05/30 09:35:57;;;;;;;4.37;3.50;;;31.80;30.50;;;;;;4954546;29;20829;-88
2021/05/30 09:38:32;;;;;;;5.33;3.43;;;32.50;30.50;;;;;;4948121;29;20457;-88
2021/05/30 09:41:02;;;;;;;4.23;3.93;;;33.40;29.60;;;;;;4947221;29;20525;-88
2021/05/30 09:43:33;;;;;;;3.67;3.10;;;30.80;31.10;;;;;;4960526;28;20458;-86
2021/05/30 09:46:12;;;;;;;3.93;3.23;;;27.80;34.30;;;;;;4949167;29;20963;-88
2021/05/30 09:48:45;;;;;;;3.67;3.40;;;26.30;35.80;;;;;;4948868;29;20480;-88
2021/05/30 09:51:40;;;;;;;3.53;3.23;;;25.10;38.10;;;;;;4948437;29;20477;-88
2021/05/30 09:54:10;;;;;;;5.00;3.17;;;24.50;38.70;;;;;;4902065;29;20505;-87
2021/05/30 09:56:44;;;;;;;3.57;3.27;;;26.00;38.70;;;;;;4947867;28;20463;-87
2021/05/30 09:59:16;;;;;;;5.57;5.10;;;26.80;36.60;;;;;;4949136;29;20948;-87
2021/05/30 10:01:51;;;;;;;2.90;2.70;;;28.50;35.30;;;;;;4946163;28;20430;-87
2021/05/30 10:04:27;;;;;;;3.17;2.50;;;29.20;32.40;;;;;;4946706;28;20466;-88
2021/05/30 10:42:03;;;;;;;3.20;3.00;;;32.00;29.60;;;;;;4728926;30;20539;-88
2021/05/30 10:49:04;;;;;;;3.77;3.40;;;33.20;28.10;;;;;;4789593;29;20455;-87
2021/05/30 10:54:57;;;;;;;5.07;3.10;;;31.90;28.10;;;;;;4832076;29;20537;-88
2021/05/30 11:19:46;;;;;;;3.23;2.80;;;29.70;29.70;;;;;;4863121;29;20445;-88
2021/05/30 11:23:07;;;;;;;3.30;3.00;;;30.70;27.90;;;;;;4901321;28;20450;-88
2021/05/30 11:25:37;;;;;;;3.80;3.50;;;31.40;27.60;;;;;;4960737;28;20489;-89
2021/05/30 11:28:05;;;;;;;3.60;3.20;;;32.60;26.40;;;;;;4955537;29;20494;-89
2021/05/30 11:30:58;;;;;;;3.00;2.80;;;33.10;26.30;;;;;;4957022;29;20453;-88
2021/05/30 11:33:40;;;;;;;4.00;3.20;;;33.70;26.20;;;;;;4941309;28;20823;-87
2021/05/30 11:36:14;;;;;;;3.20;2.90;;;32.70;26.10;;;;;;4947289;29;20962;-88
2021/05/30 11:38:42;;;;;;;2.77;2.57;;;31.20;26.90;;;;;;4948154;28;20445;-86
2021/05/30 11:41:24;;;;;;;3.10;2.80;;;32.70;27.00;;;;;;4963045;29;20430;-85
2021/05/30 11:44:05;;;;;;;3.17;2.97;;;33.10;25.50;;;;;;4954035;28;20457;-85
2021/05/30 11:46:34;;;;;;;3.90;3.23;;;32.60;25.80;;;;;;4945625;28;21002;-85
2021/05/30 11:49:03;;;;;;;6.20;3.10;;;31.70;27.50;;;;;;4956746;29;20494;-85
2021/05/30 11:51:50;;;;;;;3.20;3.00;;;31.70;27.30;;;;;;4956079;29;20562;-86
2021/05/30 11:54:18;;;;;;;3.47;3.17;;;31.90;27.10;;;;;;4950545;28;20456;-87
2021/05/30 11:56:46;;;;;;;3.17;2.97;;;30.50;27.50;;;;;;4953463;28;20449;-85
2021/05/30 11:59:13;;;;;;;3.53;2.93;;;30.90;28.10;;;;;;4950235;28;20453;-86
2021/05/30 12:01:46;;;;;;;3.70;3.20;;;30.30;27.90;;;;;;4952545;28;20993;-86
2021/05/30 12:04:23;;;;;;;3.07;2.77;;;31.30;27.60;;;;;;4947123;28;20558;-86
2021/05/30 12:06:50;;;;;;;3.90;3.10;;;31.40;26.70;;;;;;4946868;28;20456;-87
2021/05/30 12:09:16;;;;;;;4.43;2.77;;;32.90;26.10;;;;;;4946993;28;20475;-87
2021/05/30 12:11:42;;;;;;;3.47;3.17;;;33.70;25.30;;;;;;4952167;29;20497;-87
2021/05/30 12:14:10;;;;;;;3.23;2.90;;;33.70;24.30;;;;;;4950474;28;20473;-87
2021/05/30 12:16:37;;;;;;;2.90;2.37;;;33.90;24.40;;;;;;4984105;23;20494;-85
2021/05/30 12:19:06;;;;;;;2.80;2.60;;;33.40;24.80;;;;;;4983671;28;20424;-86
2021/05/30 12:21:40;;;;;;;2.87;2.67;;;32.60;24.90;;;;;;4983258;28;20491;-86
2021/05/30 12:24:08;;;;;;;3.27;2.97;;;32.00;25.50;;;;;;4964294;28;20444;-85
2021/05/30 12:26:35;;;;;;;3.23;3.03;;;32.70;25.60;;;;;;4964603;28;20575;-85
2021/05/30 12:29:02;;;;;;;5.47;3.50;;;33.40;24.70;;;;;;4960528;28;20444;-86
2021/05/30 12:31:29;;;;;;;3.47;3.13;;;34.30;24.80;;;;;;4959053;28;20570;-86
2021/05/30 12:34:01;;;;;;;3.43;3.10;;;33.40;24.60;;;;;;4960475;28;20449;-85
2021/05/30 12:36:33;;;;;;;2.90;2.70;;;34.30;25.20;;;;;;4959725;28;20461;-85
2021/05/30 12:39:01;;;;;;;2.90;2.60;;;34.50;24.30;;;;;;4951805;28;20967;-86
2021/05/30 12:41:40;;;;;;;3.20;2.90;;;36.40;24.00;;;;;;4940637;29;20488;-86
2021/05/30 12:44:14;;;;;;;2.87;2.57;;;36.90;23.00;;;;;;4944613;29;20553;-86
2021/05/30 12:46:55;;;;;;;4.57;3.07;;;37.00;21.80;;;;;;4943758;29;20480;-85
2021/05/30 12:49:21;;;;;;;3.63;3.33;;;35.30;23.20;;;;;;4944715;29;20997;-85
2021/05/30 12:52:03;;;;;;;4.03;3.20;;;33.30;24.50;;;;;;4948301;29;20523;-85
2021/05/30 12:54:30;;;;;;;3.20;2.90;;;32.50;26.00;;;;;;4958204;29;20459;-85
2021/05/30 12:56:57;;;;;;;3.60;3.30;;;33.90;25.70;;;;;;4951841;29;20543;-85
2021/05/30 12:59:25;;;;;;;3.67;3.37;;;34.30;24.60;;;;;;4947043;29;20505;-85
2021/05/30 13:01:53;;;;;;;3.60;3.30;;;34.00;24.90;;;;;;4958972;29;20438;-85
2021/05/30 13:04:28;;;;;;;3.63;3.33;;;33.80;25.00;;;;;;4958395;28;20454;-84
2021/05/30 13:06:57;;;;;;;3.50;3.20;;;31.70;26.30;;;;;;4956465;29;20496;-85
2021/05/30 13:09:25;;;;;;;3.57;3.23;;;28.90;28.70;;;;;;4954268;29;20546;-84
2021/05/30 13:11:51;;;;;;;4.60;3.03;;;28.00;29.80;;;;;;4949655;29;20474;-85
2021/05/30 13:14:35;;;;;;;3.77;3.37;;;28.90;29.10;;;;;;4941857;29;20825;-85
2021/05/30 13:17:22;;;;;;;3.40;3.10;;;30.50;28.50;;;;;;4948849;29;20504;-85
2021/05/30 13:20:04;;;;;;;3.50;2.97;;;32.50;27.70;;;;;;4945446;29;20445;-85
2021/05/30 13:22:31;;;;;;;5.00;4.30;;;33.20;26.70;;;;;;4960890;29;20428;-84
2021/05/30 13:24:58;;;;;;;5.60;3.97;;;32.70;27.10;;;;;;4961908;28;20436;-84
2021/05/30 13:27:25;;;;;;;4.27;3.90;;;33.10;26.30;;;;;;4960807;28;20514;-85
2021/05/30 13:30:06;;;;;;;3.80;3.50;;;34.60;26.60;;;;;;4955503;29;20485;-85
2021/05/30 13:32:33;;;;;;;4.60;3.97;;;33.20;26.20;;;;;;4960379;29;20749;-85
2021/05/30 13:34:59;;;;;;;3.43;3.13;;;30.10;28.50;;;;;;4976071;28;20461;-85
2021/05/30 13:37:26;;;;;;;3.87;3.57;;;28.10;31.10;;;;;;4962170;28;20971;-84
2021/05/30 13:39:54;;;;;;;5.00;3.73;;;27.50;31.80;;;;;;4959342;28;20449;-84
2021/05/30 13:42:21;;;;;;;4.10;3.50;;;28.60;31.80;;;;;;4959288;28;20447;-85
2021/05/30 13:44:47;;;;;;;4.60;3.07;;;30.60;30.10;;;;;;4958444;28;20448;-85
2021/05/30 13:47:13;;;;;;;3.70;3.40;;;32.10;28.40;;;;;;4953436;28;20474;-85
2021/05/30 13:49:41;;;;;;;3.77;3.47;;;32.20;27.20;;;;;;4939387;29;20457;-85
2021/05/30 13:52:07;;;;;;;3.80;3.50;;;33.00;26.80;;;;;;4938954;29;20485;-85
2021/05/30 13:54:34;;;;;;;3.57;3.27;;;34.50;25.60;;;;;;4938926;29;20457;-84
2021/05/30 13:57:00;;;;;;;3.23;2.93;;;33.20;25.70;;;;;;4945009;29;20462;-85
2021/05/30 13:59:27;;;;;;;7.27;3.50;;;31.00;27.40;;;;;;4940798;29;20528;-85
2021/05/30 14:01:53;;;;;;;6.17;4.10;;;30.00;27.90;;;;;;4951709;29;20445;-85
2021/05/30 14:04:21;;;;;;;3.37;3.13;;;28.30;29.30;;;;;;4959379;28;20804;-85
2021/05/30 14:06:49;;;;;;;4.77;2.93;;;26.80;30.40;;;;;;4958621;28;20508;-85
2021/05/30 14:09:16;;;;;;;5.17;3.73;;;26.10;31.70;;;;;;4959377;28;20453;-85
2021/05/30 14:11:42;;;;;;;3.43;3.13;;;27.70;31.30;;;;;;4958662;28;20489;-85
2021/05/30 14:14:08;;;;;;;4.63;4.23;;;29.60;29.80;;;;;;4959972;28;20546;-85
2021/05/30 14:16:35;;;;;;;3.40;3.10;;;30.70;28.60;;;;;;4943880;29;20536;-85
2021/05/30 14:19:01;;;;;;;3.90;3.37;;;30.20;28.50;;;;;;4954026;29;20454;-84
2021/05/30 14:21:28;;;;;;;3.57;3.27;;;29.40;29.20;;;;;;4945843;29;20446;-84
2021/05/30 14:23:55;;;;;;;6.33;4.00;;;29.60;29.50;;;;;;4940906;29;20467;-84
2021/05/30 14:26:21;;;;;;;3.20;3.00;;;28.50;29.70;;;;;;4950638;29;20458;-85
2021/05/30 14:28:48;;;;;;;3.77;3.47;;;27.60;31.20;;;;;;4942675;29;20465;-85
2021/05/30 14:31:14;;;;;;;4.10;3.63;;;26.60;32.30;;;;;;4940156;29;20479;-86
2021/05/30 14:33:41;;;;;;;4.30;3.90;;;25.70;34.00;;;;;;4951368;29;20469;-86
2021/05/30 14:36:07;;;;;;;3.57;3.27;;;25.10;34.40;;;;;;4947014;29;20476;-85
2021/05/30 14:38:33;;;;;;;4.10;3.50;;;24.40;34.70;;;;;;4943020;29;20447;-85
2021/05/30 14:41:01;;;;;;;3.40;3.13;;;24.10;35.90;;;;;;4939940;29;20453;-85
2021/05/30 14:43:27;;;;;;;4.20;3.10;;;23.60;36.00;;;;;;4956878;28;20454;-85
2021/05/30 14:45:53;;;;;;;3.43;3.13;;;23.40;36.90;;;;;;4958141;28;20478;-84
2021/05/30 14:48:19;;;;;;;3.63;3.33;;;23.50;37.20;;;;;;4957404;28;20550;-85
2021/05/30 14:50:48;;;;;;;4.03;3.60;;;23.50;36.30;;;;;;4957976;28;20464;-85
2021/05/30 14:53:15;;;;;;;3.63;3.33;;;23.50;37.00;;;;;;4957521;28;21010;-85
2021/05/30 14:55:42;;;;;;;3.50;3.20;;;23.80;37.80;;;;;;4952489;28;20845;-85
2021/05/30 14:58:12;;;;;;;4.43;3.03;;;23.80;36.20;;;;;;4938273;29;20906;-85
2021/05/30 15:00:39;;;;;;;4.10;3.03;;;23.20;36.90;;;;;;4938033;29;20453;-85
2021/05/30 15:03:05;;;;;;;5.50;3.20;;;22.90;36.40;;;;;;4937657;29;20461;-84
2021/05/30 15:05:32;;;;;;;4.47;3.87;;;22.60;36.70;;;;;;4938151;29;20489;-85
2021/05/30 15:07:58;;;;;;;3.30;3.00;;;22.60;37.30;;;;;;4939281;29;20514;-85
2021/05/30 15:10:31;;;;;;;3.77;3.10;;;22.80;37.40;;;;;;4949701;28;20453;-85
2021/05/30 15:12:58;;;;;;;3.30;3.10;;;22.90;37.20;;;;;;4957739;28;20477;-86
2021/05/30 15:15:25;;;;;;;4.07;3.70;;;23.00;37.50;;;;;;4957283;28;20473;-85
2021/05/30 15:17:52;;;;;;;5.73;3.97;;;22.80;37.70;;;;;;4957472;28;20453;-85
2021/05/30 15:20:18;;;;;;;3.47;3.17;;;22.70;38.20;;;;;;4956107;28;20449;-85
2021/05/30 15:22:44;;;;;;;3.57;3.30;;;22.50;38.50;;;;;;4956217;28;20464;-86
2021/05/30 15:25:11;;;;;;;6.53;5.93;;;22.40;38.70;;;;;;4964297;28;20458;-85
2021/05/30 15:27:37;;;;;;;7.50;6.80;;;22.50;38.00;;;;;;4967098;28;20859;-86
2021/05/30 15:30:06;;;;;;;5.83;5.33;;;22.50;38.30;;;;;;4962336;28;20457;-85
2021/05/30 15:32:33;;;;;;;5.17;4.77;;;22.50;37.60;;;;;;4957235;28;21014;-85
2021/05/30 15:35:02;;;;;;;12.20;8.70;;;22.40;37.60;;;;;;4972691;28;20465;-85
2021/05/30 15:37:28;;;;;;;3.20;2.90;;;22.50;37.90;;;;;;4951792;28;20526;-85
2021/05/30 15:39:54;;;;;;;4.93;4.30;;;22.20;37.50;;;;;;4941716;29;20468;-85
2021/05/30 15:42:20;;;;;;;2.90;2.63;;;22.00;38.10;;;;;;4944829;29;20564;-85
2021/05/30 15:44:46;;;;;;;3.60;2.70;;;22.00;37.80;;;;;;4938205;29;20450;-85
2021/05/30 15:47:13;;;;;;;4.40;4.00;;;22.00;37.70;;;;;;4939260;29;20473;-85
2021/05/30 15:49:40;;;;;;;3.43;3.13;;;22.00;38.10;;;;;;4937764;29;20977;-85
2021/05/30 15:52:06;;;;;;;3.37;3.07;;;22.00;38.30;;;;;;4957638;28;20484;-85
2021/05/30 15:54:34;;;;;;;3.20;2.90;;;22.00;38.00;;;;;;4971720;28;20456;-85
2021/05/30 15:57:01;;;;;;;4.27;3.37;;;21.90;38.10;;;;;;4972746;28;20486;-85
2021/05/30 15:59:27;;;;;;;5.10;3.00;;;21.90;38.10;;;;;;4972053;28;20435;-85
2021/05/30 16:01:54;;;;;;;4.20;3.77;;;21.80;38.10;;;;;;4965037;28;20451;-85
2021/05/30 16:04:20;;;;;;;3.57;3.27;;;21.70;38.40;;;;;;4970697;28;20449;-85